Time;durP1;ratioP1;P1;durP2;ratioP2;P2;SDS_P1;SDS_P2;PMS_P1;PMS_P2;Temp;Humidity;BMP_temperature;BMP_pressure;BME280_temperature;BME280_humidity;BME280_pressure;Samples;Min_cycle;Max_cycle;Signal;HPM_P1;HPM_P2
2021/04/21 00:01:45;;;;;;;39.60;22.00;;;7.40;70.30;;;;;;4977264;28;20019;-72
2021/04/21 00:04:14;;;;;;;36.90;22.17;;;7.30;70.80;;;;;;4959193;28;20070;-72
2021/04/21 00:06:41;;;;;;;39.70;22.13;;;7.30;71.00;;;;;;4977075;28;20135;-73
2021/04/21 00:09:11;;;;;;;29.65;19.75;;;7.20;71.20;;;;;;4959786;28;20037;-73
2021/04/21 00:11:39;;;;;;;34.33;20.70;;;7.20;71.40;;;;;;4959809;28;20435;-73
2021/04/21 00:14:06;;;;;;;35.25;22.23;;;7.10;71.60;;;;;;4959551;28;20061;-73
2021/04/21 00:16:33;;;;;;;36.88;21.90;;;7.10;71.70;;;;;;4959539;28;20023;-73
2021/04/21 00:19:01;;;;;;;40.78;22.92;;;7.00;71.90;;;;;;4959368;28;20038;-73
2021/04/21 00:21:29;;;;;;;38.13;23.27;;;6.90;72.10;;;;;;4959725;28;20428;-73
2021/04/21 00:23:55;;;;;;;40.55;22.88;;;6.70;72.60;;;;;;4958179;28;20484;-73
2021/04/21 00:26:23;;;;;;;43.35;23.95;;;6.50;73.60;;;;;;4959038;28;20035;-73
2021/04/21 00:28:51;;;;;;;39.22;22.42;;;6.30;74.30;;;;;;4959509;28;20063;-74
2021/04/21 00:31:18;;;;;;;43.67;23.02;;;6.30;74.70;;;;;;4959265;28;20396;-75
2021/04/21 00:33:47;;;;;;;47.17;23.83;;;6.30;74.90;;;;;;4959185;28;20038;-72
2021/04/21 00:36:16;;;;;;;44.17;24.25;;;6.20;75.30;;;;;;4959247;28;20101;-72
2021/04/21 00:38:44;;;;;;;38.97;23.02;;;6.20;75.80;;;;;;4958675;28;20030;-73
2021/04/21 00:41:39;;;;;;;43.35;24.13;;;6.00;76.40;;;;;;4958951;28;20130;-72
2021/04/21 00:44:26;;;;;;;42.28;24.23;;;6.00;76.90;;;;;;4946336;28;20041;-73
2021/04/21 00:47:00;;;;;;;44.47;24.35;;;6.00;77.30;;;;;;4958935;28;20027;-73
2021/04/21 00:49:49;;;;;;;39.42;22.65;;;6.10;77.30;;;;;;4959022;28;20034;-73
2021/04/21 00:52:27;;;;;;;44.65;24.25;;;6.10;77.00;;;;;;4958739;28;20029;-73
2021/04/21 00:54:58;;;;;;;40.38;23.95;;;6.20;76.80;;;;;;4958714;28;20055;-73
2021/04/21 00:57:43;;;;;;;41.67;24.48;;;6.10;76.90;;;;;;4958655;28;20042;-72
2021/04/21 01:00:26;;;;;;;41.28;23.65;;;6.20;76.70;;;;;;4958701;28;20101;-73
2021/04/21 01:03:09;;;;;;;43.92;22.55;;;6.30;76.50;;;;;;4958867;28;20066;-73
2021/04/21 01:05:41;;;;;;;38.88;22.33;;;6.20;76.30;;;;;;4958994;28;20031;-73
2021/04/21 01:08:13;;;;;;;32.90;20.63;;;6.30;76.20;;;;;;4956142;28;20027;-72
2021/04/21 01:10:46;;;;;;;35.22;21.58;;;6.40;76.00;;;;;;4958696;28;20023;-73
2021/04/21 01:13:12;;;;;;;37.13;22.55;;;6.40;75.50;;;;;;4958462;28;20114;-73
2021/04/21 01:15:40;;;;;;;36.42;22.27;;;6.50;75.90;;;;;;4958529;28;20035;-73
2021/04/21 01:18:11;;;;;;;35.03;22.70;;;6.50;74.80;;;;;;4958564;28;20122;-73
2021/04/21 01:21:02;;;;;;;43.92;23.48;;;6.50;74.70;;;;;;4958491;28;20038;-73
2021/04/21 01:24:10;;;;;;;38.97;23.95;;;6.50;74.70;;;;;;4975672;28;20030;-73
2021/04/21 01:26:50;;;;;;;38.90;22.88;;;6.30;75.10;;;;;;4945653;28;20061;-73
2021/04/21 01:29:25;;;;;;;40.85;22.75;;;6.30;75.30;;;;;;4958162;28;20019;-73
2021/04/21 01:31:55;;;;;;;38.50;22.95;;;6.30;75.20;;;;;;4975756;28;20023;-73
2021/04/21 01:34:22;;;;;;;38.78;21.73;;;6.20;74.90;;;;;;4957838;28;20038;-73
2021/04/21 01:36:49;;;;;;;36.97;22.27;;;6.20;75.00;;;;;;4960965;28;20031;-73
2021/04/21 01:39:17;;;;;;;36.22;21.48;;;6.20;75.10;;;;;;4962180;28;20082;-74
2021/04/21 01:41:47;;;;;;;38.75;22.55;;;6.20;75.00;;;;;;4961355;28;20129;-74
2021/04/21 01:44:19;;;;;;;35.35;20.55;;;6.20;75.00;;;;;;4958477;28;20027;-74
2021/04/21 01:46:55;;;;;;;34.63;20.52;;;6.20;74.90;;;;;;4958211;28;20034;-74
2021/04/21 01:49:23;;;;;;;36.00;21.00;;;6.20;74.80;;;;;;4957634;28;20035;-74
2021/04/21 01:52:05;;;;;;;33.90;20.88;;;6.20;74.80;;;;;;4975303;28;20023;-74
2021/04/21 01:54:33;;;;;;;36.10;20.98;;;6.10;75.00;;;;;;4975040;28;20464;-74
2021/04/21 01:57:05;;;;;;;35.35;20.05;;;6.10;74.90;;;;;;4975212;28;20038;-74
2021/04/21 01:59:55;;;;;;;33.35;20.70;;;6.10;74.80;;;;;;4957816;28;20074;-74
2021/04/21 02:02:37;;;;;;;34.53;22.33;;;6.10;74.90;;;;;;4975061;28;20039;-74
2021/04/21 02:05:29;;;;;;;36.38;20.85;;;6.10;75.10;;;;;;4957562;28;20487;-73
2021/04/21 02:08:09;;;;;;;37.35;21.63;;;6.00;75.30;;;;;;4957738;28;20029;-73
2021/04/21 02:11:05;;;;;;;36.60;22.92;;;6.00;75.50;;;;;;4957558;28;20023;-76
2021/04/21 02:13:54;;;;;;;40.42;22.33;;;6.00;75.50;;;;;;4957422;28;20115;-74
2021/04/21 02:16:25;;;;;;;37.90;21.80;;;5.90;75.70;;;;;;4941570;28;20061;-74
2021/04/21 02:18:56;;;;;;;35.42;20.35;;;5.90;75.80;;;;;;4957403;28;20022;-74
2021/04/21 02:21:28;;;;;;;33.42;19.70;;;5.90;75.70;;;;;;4957396;28;20030;-74
2021/04/21 02:24:15;;;;;;;31.73;19.55;;;5.90;75.70;;;;;;4957484;28;20019;-75
2021/04/21 02:27:10;;;;;;;34.00;20.42;;;5.90;75.80;;;;;;4957441;28;20514;-74
2021/04/21 02:30:09;;;;;;;35.63;20.95;;;5.90;75.90;;;;;;4957116;28;20033;-74
2021/04/21 02:33:04;;;;;;;40.90;22.42;;;5.90;75.80;;;;;;4974612;28;20086;-74
2021/04/21 02:36:00;;;;;;;36.72;21.50;;;5.90;76.10;;;;;;4956819;28;20034;-74
2021/04/21 02:38:58;;;;;;;36.55;21.42;;;5.80;76.30;;;;;;4972397;28;20046;-74
2021/04/21 02:41:40;;;;;;;40.50;22.20;;;5.80;76.20;;;;;;4973710;28;20514;-74
2021/04/21 02:44:30;;;;;;;40.33;23.05;;;5.80;76.20;;;;;;4956844;28;20038;-74
2021/04/21 02:47:27;;;;;;;37.85;22.05;;;5.80;76.30;;;;;;4973743;28;20537;-74
2021/04/21 02:50:22;;;;;;;36.42;21.10;;;5.70;76.50;;;;;;4957105;28;20098;-74
2021/04/21 02:53:02;;;;;;;38.90;21.77;;;5.60;76.50;;;;;;4974289;28;20439;-74
2021/04/21 02:55:34;;;;;;;38.20;21.75;;;5.60;76.80;;;;;;4956760;28;20042;-74
2021/04/21 02:58:07;;;;;;;38.13;22.60;;;5.50;77.20;;;;;;4956999;28;20031;-74
2021/04/21 03:01:01;;;;;;;38.80;21.63;;;5.40;77.90;;;;;;4956754;28;20125;-73
2021/04/21 03:03:50;;;;;;;38.63;21.90;;;5.30;78.30;;;;;;4956381;28;20149;-73
2021/04/21 03:06:31;;;;;;;41.28;22.25;;;5.40;78.30;;;;;;4956850;28;20440;-73
2021/04/21 03:09:04;;;;;;;43.13;22.83;;;5.30;78.30;;;;;;4956771;28;20446;-73
2021/04/21 03:11:31;;;;;;;38.72;20.63;;;5.30;78.20;;;;;;4956765;28;20145;-72
2021/04/21 03:14:07;;;;;;;36.53;21.65;;;5.30;78.10;;;;;;4956860;28;20110;-72
2021/04/21 03:16:36;;;;;;;37.45;21.98;;;5.20;77.70;;;;;;4956918;28;20082;-72
2021/04/21 03:19:07;;;;;;;34.75;20.48;;;5.20;77.40;;;;;;4956620;28;20066;-72
2021/04/21 03:21:40;;;;;;;34.38;20.05;;;5.10;77.60;;;;;;4974076;28;20030;-74
2021/04/21 03:24:14;;;;;;;29.90;17.88;;;5.00;78.00;;;;;;4956595;28;20587;-74
2021/04/21 03:26:43;;;;;;;33.13;19.70;;;4.90;78.50;;;;;;4956753;28;20361;-74
2021/04/21 03:29:15;;;;;;;38.63;20.85;;;4.90;78.80;;;;;;4956611;28;20026;-74
2021/04/21 03:31:44;;;;;;;42.15;21.38;;;4.80;79.00;;;;;;4956701;28;20460;-74
2021/04/21 03:34:15;;;;;;;35.45;20.33;;;4.90;79.20;;;;;;4973860;28;20049;-73
2021/04/21 03:36:43;;;;;;;38.58;20.02;;;4.90;79.10;;;;;;4974027;28;20081;-74
2021/04/21 03:39:10;;;;;;;36.58;19.60;;;5.00;78.70;;;;;;4956396;28;20034;-73
2021/04/21 03:41:36;;;;;;;35.75;20.98;;;5.10;78.50;;;;;;4956279;28;20034;-74
2021/04/21 03:44:03;;;;;;;34.53;20.67;;;5.10;78.20;;;;;;4974314;28;20035;-73
2021/04/21 03:46:29;;;;;;;34.10;19.70;;;5.10;78.20;;;;;;4956446;28;20027;-73
2021/04/21 03:48:56;;;;;;;32.85;19.33;;;5.10;78.00;;;;;;4956346;28;20118;-74
2021/04/21 03:51:23;;;;;;;35.88;20.42;;;5.10;77.60;;;;;;4956271;28;20023;-74
2021/04/21 03:53:51;;;;;;;33.03;19.13;;;5.10;77.50;;;;;;4956475;28;20100;-74
2021/04/21 03:56:23;;;;;;;35.28;19.55;;;5.10;77.60;;;;;;4973505;28;20122;-74
2021/04/21 03:58:51;;;;;;;33.08;18.50;;;5.20;77.70;;;;;;4958285;28;20535;-73
2021/04/21 04:01:22;;;;;;;33.28;19.88;;;5.10;77.60;;;;;;4959548;28;20479;-74
2021/04/21 04:03:56;;;;;;;32.50;20.27;;;5.20;77.60;;;;;;4977099;28;20481;-74
2021/04/21 04:06:44;;;;;;;35.50;21.40;;;5.20;77.50;;;;;;4959573;28;20026;-73
2021/04/21 04:09:11;;;;;;;35.10;19.73;;;5.20;77.40;;;;;;4959530;28;20025;-74
2021/04/21 04:11:45;;;;;;;34.40;20.40;;;5.10;78.10;;;;;;4959408;28;20033;-73
2021/04/21 04:14:21;;;;;;;35.03;19.58;;;5.10;78.40;;;;;;4959611;28;20106;-73
2021/04/21 04:16:51;;;;;;;32.08;19.42;;;5.10;78.50;;;;;;4959863;28;20118;-74
2021/04/21 04:19:18;;;;;;;32.70;19.05;;;5.10;78.20;;;;;;4959450;28;20046;-74
2021/04/21 04:21:50;;;;;;;30.52;19.58;;;5.10;78.10;;;;;;4959684;28;20034;-73
2021/04/21 04:24:20;;;;;;;33.00;20.10;;;5.10;78.00;;;;;;4959577;28;20447;-73
2021/04/21 04:26:47;;;;;;;35.28;21.15;;;5.10;78.00;;;;;;4959173;28;20128;-74
2021/04/21 04:29:13;;;;;;;35.60;19.65;;;5.00;78.10;;;;;;4959301;28;20023;-73
2021/04/21 04:31:40;;;;;;;31.17;19.33;;;5.10;78.60;;;;;;4959102;28;20033;-74
2021/04/21 04:34:08;;;;;;;34.50;20.15;;;5.00;78.40;;;;;;4959148;28;20566;-74
2021/04/21 04:36:39;;;;;;;40.08;20.08;;;5.10;78.60;;;;;;4959412;28;20101;-74
2021/04/21 04:39:07;;;;;;;34.70;19.60;;;5.00;79.30;;;;;;4958438;28;20500;-74
2021/04/21 04:41:33;;;;;;;36.63;19.67;;;5.10;79.30;;;;;;4959104;28;20086;-74
2021/04/21 04:44:00;;;;;;;34.03;19.60;;;5.10;78.40;;;;;;4959180;28;20030;-73
2021/04/21 04:46:39;;;;;;;35.42;20.60;;;5.00;78.00;;;;;;4958946;28;20122;-73
2021/04/21 04:49:10;;;;;;;36.15;20.45;;;5.00;78.10;;;;;;4959096;28;20030;-74
2021/04/21 04:51:43;;;;;;;32.58;21.27;;;5.00;78.10;;;;;;4959013;28;20035;-74
2021/04/21 04:54:10;;;;;;;35.63;20.30;;;5.00;77.90;;;;;;4958591;28;20027;-73
2021/04/21 04:56:36;;;;;;;36.13;20.42;;;5.10;77.90;;;;;;4955606;29;20050;-73
2021/04/21 04:59:04;;;;;;;33.60;20.05;;;5.00;77.80;;;;;;4955543;29;20034;-74
2021/04/21 05:01:49;;;;;;;36.10;19.70;;;5.10;77.90;;;;;;4955381;29;20088;-74
2021/04/21 05:04:18;;;;;;;35.88;19.42;;;5.10;77.70;;;;;;4955561;29;20023;-74
2021/04/21 05:06:51;;;;;;;33.97;18.95;;;5.20;77.60;;;;;;4955540;29;20030;-73
2021/04/21 05:09:21;;;;;;;36.88;20.42;;;5.20;77.40;;;;;;4954862;28;20019;-74
2021/04/21 05:11:50;;;;;;;38.15;20.65;;;5.00;76.60;;;;;;4955174;29;20496;-74
2021/04/21 05:14:20;;;;;;;42.63;22.58;;;5.00;76.60;;;;;;4956666;28;20034;-74
2021/04/21 05:17:19;;;;;;;37.03;20.65;;;4.80;76.90;;;;;;4956594;28;20027;-74
2021/04/21 05:20:03;;;;;;;37.88;21.20;;;4.80;77.70;;;;;;4955225;29;20067;-74
2021/04/21 05:22:57;;;;;;;33.13;19.58;;;4.90;77.90;;;;;;4955138;29;20031;-74
2021/04/21 05:25:47;;;;;;;33.58;19.90;;;5.00;77.80;;;;;;4956353;29;20370;-73
2021/04/21 05:28:13;;;;;;;37.65;21.67;;;5.10;77.70;;;;;;4955443;28;20082;-74
2021/04/21 05:30:51;;;;;;;36.95;22.15;;;5.20;77.80;;;;;;4954985;29;20027;-73
2021/04/21 05:33:54;;;;;;;33.92;20.30;;;5.30;77.90;;;;;;4954077;29;20027;-73
2021/04/21 05:36:48;;;;;;;33.03;18.27;;;5.50;77.60;;;;;;4954780;29;20027;-73
2021/04/21 05:39:28;;;;;;;34.03;19.35;;;5.60;77.10;;;;;;4955846;28;20082;-73
2021/04/21 05:42:30;;;;;;;41.10;22.42;;;5.80;76.50;;;;;;4954357;29;20034;-73
2021/04/21 05:45:24;;;;;;;40.55;21.77;;;5.80;75.40;;;;;;4955654;28;20087;-73
2021/04/21 05:48:27;;;;;;;37.60;22.05;;;6.00;75.00;;;;;;4954341;29;20023;-74
2021/04/21 05:51:24;;;;;;;34.35;21.98;;;6.00;74.60;;;;;;4955586;28;20030;-72
2021/04/21 05:54:14;;;;;;;36.72;20.65;;;6.20;74.30;;;;;;4954920;29;20039;-75
2021/04/21 05:56:43;;;;;;;34.50;19.25;;;6.40;74.10;;;;;;4954164;29;20095;-74
2021/04/21 05:59:32;;;;;;;30.33;18.17;;;6.50;73.80;;;;;;4953970;29;20031;-74
2021/04/21 06:01:58;;;;;;;31.58;18.42;;;6.60;73.50;;;;;;4954140;29;20041;-72
2021/04/21 06:04:24;;;;;;;25.48;15.60;;;6.70;73.20;;;;;;4954133;29;20031;-73
2021/04/21 06:07:06;;;;;;;30.80;16.75;;;6.90;73.00;;;;;;4954017;29;20118;-73
2021/04/21 06:09:32;;;;;;;26.50;16.67;;;7.00;72.80;;;;;;4954179;29;20038;-73
2021/04/21 06:12:11;;;;;;;22.90;14.38;;;7.10;72.80;;;;;;4955341;28;20023;-74
2021/04/21 06:14:40;;;;;;;21.73;14.35;;;7.30;72.40;;;;;;4954277;29;20098;-73
2021/04/21 06:17:06;;;;;;;21.98;14.00;;;7.50;72.00;;;;;;4953643;29;20062;-73
2021/04/21 06:19:32;;;;;;;28.77;15.90;;;7.60;71.60;;;;;;4955108;28;20109;-74
2021/04/21 06:21:58;;;;;;;24.73;16.63;;;7.70;71.00;;;;;;4954459;28;20024;-74
2021/04/21 06:24:29;;;;;;;25.05;15.93;;;7.90;70.60;;;;;;4955073;29;20031;-74
2021/04/21 06:27:08;;;;;;;23.27;14.05;;;8.00;70.10;;;;;;4953560;29;20030;-75
2021/04/21 06:29:35;;;;;;;21.88;14.60;;;8.10;70.00;;;;;;4953545;29;20027;-75
2021/04/21 06:32:03;;;;;;;25.10;15.38;;;8.30;69.80;;;;;;4952826;29;20493;-74
2021/04/21 06:34:28;;;;;;;22.80;15.07;;;8.30;69.60;;;;;;4953077;29;20485;-74
2021/04/21 06:36:58;;;;;;;24.70;15.57;;;8.50;69.50;;;;;;4953343;29;20077;-74
2021/04/21 06:39:25;;;;;;;23.92;15.10;;;8.60;69.20;;;;;;4954669;28;20040;-74
2021/04/21 06:42:00;;;;;;;22.15;14.25;;;8.70;69.20;;;;;;4953589;29;20476;-76
2021/04/21 06:44:30;;;;;;;19.33;11.68;;;8.90;68.80;;;;;;4953618;29;20306;-73
2021/04/21 06:46:56;;;;;;;24.17;15.00;;;9.00;68.40;;;;;;4953610;29;20034;-74
2021/04/21 06:49:22;;;;;;;26.50;14.70;;;9.10;68.30;;;;;;4953274;29;20122;-74
2021/04/21 06:51:48;;;;;;;22.35;15.30;;;9.30;68.00;;;;;;4953548;29;20141;-74
2021/04/21 06:54:13;;;;;;;23.08;14.23;;;9.30;67.90;;;;;;4954817;29;20477;-74
2021/04/21 06:56:39;;;;;;;25.05;16.23;;;9.40;66.60;;;;;;4953322;29;20074;-75
2021/04/21 06:59:05;;;;;;;21.67;14.85;;;9.50;66.10;;;;;;4953217;29;20027;-75
2021/04/21 07:01:31;;;;;;;23.13;15.70;;;9.60;65.50;;;;;;4953796;29;20053;-72
2021/04/21 07:04:14;;;;;;;23.35;14.82;;;9.70;65.00;;;;;;4953980;29;20479;-73
2021/04/21 07:06:43;;;;;;;21.95;15.05;;;9.80;64.50;;;;;;4953319;29;20023;-73
2021/04/21 07:09:20;;;;;;;24.88;16.08;;;10.00;64.10;;;;;;4952787;29;20023;-75
2021/04/21 07:11:56;;;;;;;28.88;17.15;;;10.10;63.70;;;;;;4953050;29;20082;-74
2021/04/21 07:14:23;;;;;;;27.17;17.05;;;10.10;63.30;;;;;;4952870;29;20484;-74
2021/04/21 07:16:57;;;;;;;21.88;14.98;;;10.20;62.90;;;;;;4953136;29;20027;-73
2021/04/21 07:19:25;;;;;;;20.80;15.13;;;10.40;62.50;;;;;;4953159;29;20074;-73
2021/04/21 07:21:53;;;;;;;23.55;15.38;;;10.40;61.50;;;;;;4952983;29;20106;-74
2021/04/21 07:24:27;;;;;;;24.83;17.13;;;10.60;61.50;;;;;;4953457;29;20031;-74
2021/04/21 07:26:54;;;;;;;24.25;16.23;;;10.80;61.00;;;;;;4953289;29;20023;-73
2021/04/21 07:29:24;;;;;;;26.48;14.73;;;10.90;60.80;;;;;;4953026;29;20035;-74
2021/04/21 07:31:51;;;;;;;23.48;15.18;;;11.20;60.70;;;;;;4953159;29;20023;-73
2021/04/21 07:34:31;;;;;;;22.30;14.32;;;11.30;60.30;;;;;;4957367;28;20027;-74
2021/04/21 07:36:58;;;;;;;18.95;13.63;;;11.60;59.80;;;;;;4957171;29;20043;-74
2021/04/21 07:39:40;;;;;;;23.23;15.95;;;11.80;58.90;;;;;;4957990;29;20063;-72
2021/04/21 07:42:18;;;;;;;23.15;15.23;;;12.00;56.80;;;;;;4958274;29;20100;-73
2021/04/21 07:44:52;;;;;;;25.65;16.52;;;12.10;56.40;;;;;;4956290;29;20149;-74
2021/04/21 07:47:23;;;;;;;24.95;16.83;;;12.10;54.90;;;;;;4958385;29;20027;-73
2021/04/21 07:50:00;;;;;;;26.42;17.48;;;12.20;54.40;;;;;;4958497;29;20122;-72
2021/04/21 07:52:28;;;;;;;25.25;15.20;;;12.30;55.90;;;;;;4966613;28;20019;-72
2021/04/21 07:55:16;;;;;;;21.23;15.73;;;12.60;56.80;;;;;;4963697;28;20423;-74
2021/04/21 07:57:44;;;;;;;19.92;12.75;;;13.00;54.50;;;;;;4961592;28;20416;-72
2021/04/21 08:00:24;;;;;;;30.52;13.10;;;13.30;53.00;;;;;;4979588;28;20038;-72
2021/04/21 08:02:50;;;;;;;21.25;14.35;;;13.40;51.90;;;;;;4960262;28;20057;-73
2021/04/21 08:05:16;;;;;;;24.58;13.77;;;13.70;50.60;;;;;;4977182;28;20061;-73
2021/04/21 08:07:43;;;;;;;20.65;12.50;;;13.80;50.00;;;;;;4959951;28;20058;-71
2021/04/21 08:10:23;;;;;;;20.67;13.95;;;14.00;50.10;;;;;;4977045;28;20052;-73
2021/04/21 08:12:53;;;;;;;20.85;12.90;;;14.10;47.90;;;;;;4977075;28;20503;-73
2021/04/21 08:15:25;;;;;;;19.55;13.18;;;14.30;47.40;;;;;;4976896;28;20559;-73
2021/04/21 08:18:04;;;;;;;21.65;12.95;;;14.40;47.50;;;;;;4976948;28;20026;-72
2021/04/21 08:20:41;;;;;;;17.25;12.85;;;14.50;46.10;;;;;;4976892;28;20435;-72
2021/04/21 08:23:10;;;;;;;18.65;12.23;;;14.50;45.20;;;;;;4976828;28;20102;-72
2021/04/21 08:25:36;;;;;;;21.25;12.07;;;14.70;47.10;;;;;;4976642;28;20336;-72
2021/04/21 08:28:02;;;;;;;17.15;12.30;;;14.90;47.20;;;;;;4976618;28;20464;-76
2021/04/21 08:30:29;;;;;;;15.45;10.30;;;15.10;46.80;;;;;;4976449;28;20030;-74
2021/04/21 08:32:55;;;;;;;15.75;11.60;;;15.30;46.60;;;;;;4976604;28;20079;-73
2021/04/21 08:35:21;;;;;;;14.93;11.10;;;15.50;46.20;;;;;;4976240;28;20026;-73
2021/04/21 08:37:47;;;;;;;17.52;12.48;;;15.50;44.50;;;;;;4976312;28;20480;-78
2021/04/21 08:40:16;;;;;;;14.68;9.55;;;15.70;44.10;;;;;;4976185;28;20042;-74
2021/04/21 08:42:44;;;;;;;12.95;9.40;;;15.80;43.80;;;;;;4976157;28;20027;-75
2021/04/21 08:45:11;;;;;;;16.35;11.15;;;16.00;43.00;;;;;;4975188;28;20029;-73
2021/04/21 08:47:40;;;;;;;16.02;10.07;;;16.00;41.30;;;;;;4976207;28;20034;-73
2021/04/21 08:50:07;;;;;;;14.02;9.48;;;16.00;41.60;;;;;;4976064;28;20050;-72
2021/04/21 08:52:42;;;;;;;16.83;11.38;;;16.20;41.70;;;;;;4976126;28;20031;-77
2021/04/21 08:55:11;;;;;;;17.52;12.63;;;16.30;41.80;;;;;;4975995;28;20455;-73
2021/04/21 08:57:38;;;;;;;16.52;10.75;;;16.20;41.10;;;;;;4976023;28;20030;-72
2021/04/21 09:00:05;;;;;;;17.15;12.68;;;16.20;40.60;;;;;;4975808;28;20459;-72
2021/04/21 09:02:31;;;;;;;14.52;9.88;;;16.20;40.70;;;;;;4975355;28;20027;-72
2021/04/21 09:04:56;;;;;;;16.17;11.95;;;16.40;40.80;;;;;;4975712;28;20538;-74
2021/04/21 09:07:22;;;;;;;16.77;10.52;;;16.50;40.40;;;;;;4975565;28;20030;-72
2021/04/21 09:09:48;;;;;;;14.80;10.25;;;16.60;40.00;;;;;;4958216;28;20026;-72
2021/04/21 09:12:14;;;;;;;12.70;9.00;;;16.70;39.30;;;;;;4975639;28;20026;-74
2021/04/21 09:14:40;;;;;;;10.57;8.20;;;16.90;39.00;;;;;;4975746;28;20026;-73
2021/04/21 09:17:06;;;;;;;14.02;9.18;;;17.00;38.60;;;;;;4975668;28;20035;-72
2021/04/21 09:19:36;;;;;;;12.27;7.85;;;17.20;37.70;;;;;;4975550;28;20030;-73
2021/04/21 09:22:06;;;;;;;11.95;9.20;;;17.30;37.60;;;;;;4975347;28;20027;-72
2021/04/21 09:24:36;;;;;;;10.25;7.45;;;17.40;36.70;;;;;;4975392;28;20149;-72
2021/04/21 09:27:35;;;;;;;20.55;9.15;;;17.40;36.10;;;;;;4975365;28;20157;-73
2021/04/21 09:30:16;;;;;;;11.95;7.65;;;17.40;35.90;;;;;;4975392;28;20506;-73
2021/04/21 09:32:45;;;;;;;16.05;7.38;;;17.50;35.60;;;;;;4975449;28;20405;-72
2021/04/21 09:35:28;;;;;;;11.63;7.00;;;17.60;35.60;;;;;;4975149;28;20046;-73
2021/04/21 09:38:04;;;;;;;11.95;8.10;;;17.80;35.50;;;;;;4957828;28;20077;-72
2021/04/21 09:40:49;;;;;;;7.60;6.03;;;17.80;35.10;;;;;;4974793;28;20039;-72
2021/04/21 09:43:23;;;;;;;11.48;8.57;;;17.90;34.00;;;;;;4957435;28;20463;-72
2021/04/21 09:45:54;;;;;;;10.05;7.03;;;17.50;33.50;;;;;;4957503;28;20034;-74
2021/04/21 09:48:35;;;;;;;7.38;5.53;;;17.50;33.80;;;;;;4974990;28;20027;-74
2021/04/21 09:51:05;;;;;;;9.05;6.50;;;17.40;33.10;;;;;;4974757;28;20031;-73
2021/04/21 09:53:45;;;;;;;6.85;5.28;;;17.30;33.30;;;;;;4974714;28;20554;-71
2021/04/21 09:56:24;;;;;;;7.20;6.07;;;17.40;34.40;;;;;;4956915;28;20452;-71
2021/04/21 09:58:58;;;;;;;7.38;6.15;;;17.70;33.70;;;;;;4974827;28;20058;-73
2021/04/21 10:01:32;;;;;;;8.77;7.05;;;18.00;33.10;;;;;;4974817;28;20030;-74
2021/04/21 10:04:25;;;;;;;6.70;5.45;;;18.10;32.10;;;;;;4974634;28;20087;-73
2021/04/21 10:06:53;;;;;;;9.48;6.60;;;18.30;32.40;;;;;;4957214;28;20033;-74
2021/04/21 10:09:37;;;;;;;8.93;5.78;;;18.30;31.50;;;;;;4956772;28;20022;-73
2021/04/21 10:12:29;;;;;;;6.22;5.35;;;18.10;31.30;;;;;;4957144;28;20551;-74
2021/04/21 10:15:00;;;;;;;7.10;5.65;;;18.30;31.40;;;;;;4956996;28;20027;-72
2021/04/21 10:17:28;;;;;;;6.40;5.00;;;18.70;31.00;;;;;;4973954;28;20114;-73
2021/04/21 10:19:54;;;;;;;6.85;4.35;;;19.00;30.60;;;;;;4956570;28;20034;-73
2021/04/21 10:22:20;;;;;;;6.03;4.43;;;19.40;31.00;;;;;;4974219;28;20041;-75
2021/04/21 10:24:47;;;;;;;6.45;5.07;;;19.60;29.50;;;;;;4956442;28;20133;-73
2021/04/21 10:27:14;;;;;;;5.32;3.85;;;19.60;28.30;;;;;;4956921;28;20410;-76
2021/04/21 10:29:40;;;;;;;6.65;4.68;;;19.80;28.10;;;;;;4956589;28;20026;-74
2021/04/21 10:32:06;;;;;;;6.78;4.68;;;20.10;27.70;;;;;;4974112;28;20026;-75
2021/04/21 10:34:32;;;;;;;6.03;4.18;;;20.20;26.80;;;;;;4956408;28;20054;-72
2021/04/21 10:36:59;;;;;;;4.85;4.10;;;20.30;25.80;;;;;;4973507;28;20058;-72
2021/04/21 10:39:36;;;;;;;6.13;4.50;;;20.50;25.70;;;;;;4956597;28;20559;-75
2021/04/21 10:42:04;;;;;;;6.40;3.85;;;20.60;25.30;;;;;;4974075;28;20050;-73
2021/04/21 10:44:31;;;;;;;5.35;3.97;;;20.90;25.50;;;;;;4974011;28;20034;-73
2021/04/21 10:46:57;;;;;;;5.82;3.35;;;21.00;24.60;;;;;;4973787;28;20054;-72
2021/04/21 10:49:40;;;;;;;6.60;3.63;;;21.30;25.00;;;;;;4956308;28;20054;-74
2021/04/21 10:52:17;;;;;;;4.53;3.35;;;21.60;24.80;;;;;;4956502;28;20400;-72
2021/04/21 10:54:44;;;;;;;4.10;3.53;;;21.80;24.40;;;;;;4956443;28;20594;-74
2021/04/21 10:57:28;;;;;;;4.50;3.65;;;21.80;23.90;;;;;;4973760;28;20535;-72
2021/04/21 11:00:14;;;;;;;5.28;3.47;;;21.80;22.30;;;;;;4954525;28;20048;-73
2021/04/21 11:02:40;;;;;;;5.43;3.53;;;22.00;22.20;;;;;;4967095;28;20126;-72
2021/04/21 11:05:10;;;;;;;5.95;3.78;;;22.20;22.00;;;;;;4955969;28;20551;-76
2021/04/21 11:07:58;;;;;;;4.05;3.65;;;22.00;21.00;;;;;;4957612;28;20035;-75
2021/04/21 11:10:44;;;;;;;4.85;4.10;;;21.90;20.70;;;;;;4962039;28;20034;-76
2021/04/21 11:13:12;;;;;;;4.72;3.90;;;21.40;21.00;;;;;;4962562;28;20031;-73
2021/04/21 11:15:51;;;;;;;7.65;4.25;;;20.50;22.40;;;;;;4962620;28;20026;-76
2021/04/21 11:18:23;;;;;;;5.80;4.50;;;20.60;23.80;;;;;;4980031;28;20034;-74
2021/04/21 11:20:50;;;;;;;9.25;5.05;;;20.70;24.50;;;;;;4962390;28;20134;-73
2021/04/21 11:23:48;;;;;;;6.25;5.07;;;20.60;24.50;;;;;;4962637;28;20365;-74
2021/04/21 11:26:22;;;;;;;9.77;4.70;;;20.00;24.90;;;;;;4979870;28;20408;-73
2021/04/21 11:29:12;;;;;;;13.65;5.07;;;19.60;26.00;;;;;;4962819;28;20353;-73
2021/04/21 11:31:44;;;;;;;6.88;4.88;;;19.30;26.50;;;;;;4962819;28;20059;-73
2021/04/21 11:34:16;;;;;;;8.38;4.55;;;19.20;27.00;;;;;;4962376;28;20088;-72
2021/04/21 11:37:00;;;;;;;7.00;4.47;;;19.10;27.40;;;;;;4979806;28;20380;-74
2021/04/21 11:39:44;;;;;;;7.60;4.95;;;19.30;27.40;;;;;;4979876;28;20509;-75
2021/04/21 11:42:28;;;;;;;5.97;4.63;;;19.90;28.00;;;;;;4962304;28;20384;-72
2021/04/21 11:45:30;;;;;;;10.00;4.50;;;20.00;27.30;;;;;;4962577;28;20022;-73
2021/04/21 11:48:03;;;;;;;5.90;4.07;;;20.10;26.90;;;;;;4980034;28;20515;-72
2021/04/21 11:50:35;;;;;;;8.90;4.20;;;19.90;26.90;;;;;;4979985;28;20042;-74
2021/04/21 11:53:09;;;;;;;5.32;3.97;;;19.70;26.90;;;;;;4962824;28;20019;-72
2021/04/21 11:55:39;;;;;;;5.15;4.45;;;19.70;27.00;;;;;;4962459;28;20057;-72
2021/04/21 11:58:09;;;;;;;4.60;3.72;;;19.80;27.00;;;;;;4962268;28;20472;-74
2021/04/21 12:00:41;;;;;;;5.15;4.13;;;19.70;27.00;;;;;;4979762;28;20039;-75
2021/04/21 12:03:33;;;;;;;7.50;5.20;;;19.60;27.00;;;;;;4979779;28;20054;-74
2021/04/21 12:06:04;;;;;;;7.07;5.20;;;19.20;27.10;;;;;;4979840;28;20019;-73
2021/04/21 12:08:33;;;;;;;8.93;4.53;;;18.90;27.30;;;;;;4980028;28;20030;-75
2021/04/21 12:11:00;;;;;;;9.18;5.40;;;18.90;27.60;;;;;;4979685;28;20401;-71
2021/04/21 12:13:28;;;;;;;6.50;5.13;;;18.70;27.60;;;;;;4979515;28;20034;-73
2021/04/21 12:16:14;;;;;;;7.18;5.13;;;18.30;27.80;;;;;;4979558;28;20027;-73
2021/04/21 12:18:43;;;;;;;5.70;4.63;;;17.80;28.40;;;;;;4979172;28;20031;-73
2021/04/21 12:21:14;;;;;;;8.63;6.07;;;17.70;29.30;;;;;;4976356;28;20034;-73
2021/04/21 12:23:41;;;;;;;7.03;5.38;;;17.90;29.70;;;;;;4976425;28;20400;-75
2021/04/21 12:26:17;;;;;;;8.15;5.07;;;17.70;29.60;;;;;;4975993;28;20376;-76
2021/04/21 12:29:04;;;;;;;6.60;4.25;;;17.50;30.00;;;;;;4976273;28;20069;-76
2021/04/21 12:31:31;;;;;;;7.25;4.45;;;17.50;30.30;;;;;;4976278;28;20085;-73
2021/04/21 12:33:59;;;;;;;5.45;4.25;;;17.70;30.60;;;;;;4976667;28;20027;-74
2021/04/21 12:36:27;;;;;;;9.00;5.15;;;18.20;30.50;;;;;;4976305;28;20581;-73
2021/04/21 12:39:00;;;;;;;7.38;5.13;;;18.70;30.00;;;;;;4976185;28;20050;-73
2021/04/21 12:41:26;;;;;;;8.48;5.18;;;19.40;28.90;;;;;;4976538;28;20061;-74
2021/04/21 12:43:51;;;;;;;8.40;5.55;;;19.70;29.10;;;;;;4976144;28;20058;-73
2021/04/21 12:46:18;;;;;;;6.72;5.38;;;19.70;29.80;;;;;;4976339;28;20037;-74
2021/04/21 12:48:49;;;;;;;8.27;5.82;;;19.60;29.70;;;;;;4976000;28;20037;-74
2021/04/21 12:51:24;;;;;;;6.05;5.18;;;18.80;29.80;;;;;;4975531;28;20023;-73
2021/04/21 12:53:51;;;;;;;6.57;4.90;;;18.60;30.50;;;;;;4978290;28;20023;-74
2021/04/21 12:56:17;;;;;;;6.30;5.03;;;19.00;31.10;;;;;;4959500;28;20471;-75
2021/04/21 12:58:46;;;;;;;6.57;5.05;;;19.40;31.00;;;;;;4979667;28;20035;-75
2021/04/21 13:01:12;;;;;;;6.05;5.00;;;19.60;30.50;;;;;;4978202;28;20500;-75
2021/04/21 13:03:38;;;;;;;6.72;4.93;;;19.60;29.70;;;;;;4977248;28;20138;-75
2021/04/21 13:06:04;;;;;;;8.93;5.40;;;19.60;29.50;;;;;;4984689;28;20522;-75
2021/04/21 13:08:31;;;;;;;6.47;4.60;;;19.50;29.10;;;;;;4980443;28;20031;-75
2021/04/21 13:10:58;;;;;;;5.43;4.45;;;19.70;29.10;;;;;;4979723;28;20031;-76
2021/04/21 13:13:30;;;;;;;5.25;4.72;;;19.90;29.30;;;;;;4979019;28;20094;-75